Welcome to Northern Hawkes Bay. New Zealand.
PWS Header
      nz Flag



Hit Counter


W3C Valid W3C Valid logo


    Wairoa

Select any of the Stations below to visit their websites.










Historic Data from Weather Underground
Select the location of interest below. Wairoa is the default. Please have patience, this Data is slow to load in.
Northern Hawkes Bay Historical Data
Daily Summary for May 2, 2017 Units:  Metric    English   Both
« Previous Day
Next Day »
Daily Weekly Monthly Yearly Custom
  High: Low: Average:
Temperature: 20.0 °C 4.7 °C 10.9 °C
Dew Point: 10.4 °C 4.6 °C 7.5 °C
Humidity: 99% 50% 82%
Wind Speed: 25.6km/h 0.0km/h 5.4km/h
Wind Gust: 39.3km/h - -
Wind- - NW
Pressure: 1021.6 hPa 1013.1 hPa -
Precipitation: 0.0 mm    
Historical Graphs
 
 
Tabular Data for May 2, 2017
Time Temperature Dew Point Pressure Wind Wind Speed Wind Gust Humidity Rainfall Rate (Hourly) solar
00:02 17.0 °C 7.9 °C 1020.9 hPa Calm     55% 0.0 mm 79 W/m2
00:07 17.3 °C 7.9 °C 1021.2 hPa Calm     54% 0.0 mm 62 W/m2
00:12 17.0 °C 7.6 °C 1020.9 hPa Calm   1.1 km/h 54% 0.0 mm 55 W/m2
00:17 17.0 °C 7.9 °C 1020.9 hPa Calm   1.1 km/h 55% 0.0 mm 56 W/m2
00:22 17.3 °C 8.2 °C 1020.9 hPa Calm     55% 0.0 mm 57 W/m2
00:27 17.3 °C 8.2 °C 1020.9 hPa Calm     55% 0.0 mm 54 W/m2
00:32 17.5 °C 8.4 °C 1021.2 hPa Calm     55% 0.0 mm 53 W/m2
00:37 17.3 °C 8.2 °C 1020.9 hPa Calm     55% 0.0 mm 51 W/m2
00:42 17.0 °C 8.2 °C 1021.2 hPa Calm     56% 0.0 mm 48 W/m2
00:47 16.8 °C 8.5 °C 1021.2 hPa Calm     58% 0.0 mm 42 W/m2
00:52 16.5 °C 8.4 °C 1020.9 hPa Calm     59% 0.0 mm 34 W/m2
00:57 16.3 °C 8.5 °C 1021.2 hPa Calm     60% 0.0 mm 26 W/m2
01:02 16.2 °C 8.9 °C 1020.9 hPa Calm     62% 0.0 mm 20 W/m2
01:07 15.8 °C 8.8 °C 1020.9 hPa Calm     63% 0.0 mm 12 W/m2
01:12 15.1 °C 8.3 °C 1020.9 hPa Calm     64% 0.0 mm 8 W/m2
01:17 14.2 °C 8.2 °C 1020.9 hPa Calm     67% 0.0 mm 5 W/m2
01:22 13.4 °C 8.3 °C 1021.2 hPa Calm     71% 0.0 mm 2 W/m2
01:27 13.0 °C 8.3 °C 1020.9 hPa Calm     73% 0.0 mm 0 W/m2
01:32 12.7 °C 8.2 °C 1021.2 hPa Calm     74% 0.0 mm 0 W/m2
01:37 12.4 °C 8.3 °C 1021.2 hPa Calm     76% 0.0 mm 0 W/m2
01:42 12.1 °C 8.4 °C 1021.2 hPa Calm     78% 0.0 mm 0 W/m2
01:47 12.0 °C 8.7 °C 1021.2 hPa Calm     80% 0.0 mm 0 W/m2
01:52 11.8 °C 8.8 °C 1020.9 hPa Calm     82% 0.0 mm 0 W/m2
01:57 11.7 °C 8.9 °C 1021.2 hPa Calm     83% 0.0 mm 0 W/m2
02:02 11.5 °C 8.7 °C 1021.2 hPa Calm     83% 0.0 mm 0 W/m2
02:07 11.3 °C 8.5 °C 1021.2 hPa Calm     83% 0.0 mm 0 W/m2
02:12 11.2 °C 8.4 °C 1021.2 hPa Calm     83% 0.0 mm 0 W/m2
02:17 11.0 °C 8.4 °C 1021.2 hPa Calm     84% 0.0 mm 0 W/m2
02:22 10.9 °C 8.7 °C 1021.2 hPa Calm     86% 0.0 mm 0 W/m2
02:27 10.7 °C 8.4 °C 1021.2 hPa Calm     86% 0.0 mm 0 W/m2
02:32 10.6 °C 8.6 °C 1021.2 hPa Calm     87% 0.0 mm 0 W/m2
02:37 10.5 °C 8.6 °C 1021.6 hPa Calm     88% 0.0 mm 0 W/m2
02:42 10.3 °C 8.6 °C 1021.2 hPa Calm     89% 0.0 mm 0 W/m2
02:47 10.3 °C 8.7 °C 1021.6 hPa Calm     90% 0.0 mm 0 W/m2
02:52 10.1 °C 8.6 °C 1021.6 hPa Calm     90% 0.0 mm 0 W/m2
02:57 10.0 °C 8.4 °C 1021.2 hPa Calm     90% 0.0 mm 0 W/m2
03:02 9.8 °C 8.6 °C 1021.2 hPa Calm     92% 0.0 mm 0 W/m2
03:07 9.7 °C 8.4 °C 1021.6 hPa Calm     92% 0.0 mm 0 W/m2
03:12 9.6 °C 8.5 °C 1021.2 hPa Calm     93% 0.0 mm 0 W/m2
03:17 9.5 °C 8.4 °C 1021.6 hPa Calm     93% 0.0 mm 0 W/m2
03:22 9.2 °C 8.3 °C 1021.2 hPa Calm     94% 0.0 mm 0 W/m2
03:27 9.1 °C 8.2 °C 1021.6 hPa Calm     94% 0.0 mm 0 W/m2
03:32 9.0 °C 8.1 °C 1021.6 hPa Calm     94% 0.0 mm 0 W/m2
03:37 8.9 °C 8.2 °C 1021.6 hPa Calm     95% 0.0 mm 0 W/m2
03:42 8.9 °C 8.2 °C 1021.6 hPa Calm     95% 0.0 mm 0 W/m2
03:47 8.8 °C 8.2 °C 1021.6 hPa Calm     96% 0.0 mm 0 W/m2
03:52 8.9 °C 8.3 °C 1021.2 hPa Calm     96% 0.0 mm 0 W/m2
03:57 9.0 °C 8.2 °C 1021.2 hPa Calm     95% 0.0 mm 0 W/m2
04:02 9.0 °C 8.4 °C 1021.2 hPa Calm     96% 0.0 mm 0 W/m2
04:07 9.1 °C 8.5 °C 1021.6 hPa NNW 5.0 km/h 8.7 km/h 96% 0.0 mm 0 W/m2
04:12 9.1 °C 8.5 °C 1021.2 hPa NNW 5.0 km/h 8.7 km/h 96% 0.0 mm 0 W/m2
04:17 9.1 °C 8.5 °C 1021.2 hPa NW 5.0 km/h 8.7 km/h 96% 0.0 mm 0 W/m2
04:22 9.1 °C 8.3 °C 1021.2 hPa NW 3.5 km/h 8.7 km/h 95% 0.0 mm 0 W/m2
04:27 9.1 °C 8.3 °C 1021.2 hPa NW 3.5 km/h 8.7 km/h 95% 0.0 mm 0 W/m2
04:32 9.1 °C 8.3 °C 1021.2 hPa NW 3.5 km/h 8.7 km/h 95% 0.0 mm 0 W/m2
04:37 9.1 °C 8.3 °C 1021.2 hPa NW 5.0 km/h 8.7 km/h 95% 0.0 mm 0 W/m2
04:42 9.0 °C 8.2 °C 1021.2 hPa NW 3.5 km/h 8.7 km/h 95% 0.0 mm 0 W/m2
04:47 9.0 °C 8.2 °C 1021.2 hPa NW 3.5 km/h 8.7 km/h 95% 0.0 mm 0 W/m2
04:52 9.0 °C 8.2 °C 1021.2 hPa Calm   7.2 km/h 95% 0.0 mm 0 W/m2
04:57 8.9 °C 8.3 °C 1021.2 hPa NW 1.1 km/h 7.2 km/h 96% 0.0 mm 0 W/m2
05:02 8.9 °C 8.2 °C 1021.6 hPa Calm   6.1 km/h 95% 0.0 mm 0 W/m2
05:07 8.8 °C 8.1 °C 1021.2 hPa NNW 1.1 km/h 6.1 km/h 95% 0.0 mm 0 W/m2
05:12 8.7 °C 7.9 °C 1021.2 hPa Calm   6.1 km/h 95% 0.0 mm 0 W/m2
05:17 8.6 °C 7.8 °C 1021.2 hPa Calm   3.5 km/h 95% 0.0 mm 0 W/m2
05:22 8.5 °C 7.7 °C 1021.2 hPa Calm     95% 0.0 mm 0 W/m2
05:27 8.4 °C 7.7 °C 1021.2 hPa Calm     95% 0.0 mm 0 W/m2
05:32 8.3 °C 7.7 °C 1021.2 hPa Calm   3.5 km/h 96% 0.0 mm 0 W/m2
05:37 8.2 °C 7.6 °C 1021.2 hPa Calm   3.5 km/h 96% 0.0 mm 0 W/m2
05:42 8.1 °C 7.5 °C 1021.2 hPa Calm     96% 0.0 mm 0 W/m2
05:47 8.0 °C 7.4 °C 1021.2 hPa Calm   5.0 km/h 96% 0.0 mm 0 W/m2
05:52 8.0 °C 7.4 °C 1021.2 hPa NNW 1.1 km/h 7.2 km/h 96% 0.0 mm 0 W/m2
05:57 8.0 °C 7.4 °C 1021.2 hPa NNW 6.1 km/h 7.2 km/h 96% 0.0 mm 0 W/m2
06:02 8.1 °C 7.7 °C 1020.9 hPa NNW 3.5 km/h 8.7 km/h 97% 0.0 mm 0 W/m2
06:07 8.1 °C 7.7 °C 1020.9 hPa NNW 3.5 km/h 8.7 km/h 97% 0.0 mm 0 W/m2
06:12 8.1 °C 7.7 °C 1020.9 hPa NNW 2.6 km/h 8.7 km/h 97% 0.0 mm 0 W/m2
06:17 8.1 °C 7.7 °C 1020.9 hPa NNW 3.5 km/h 8.7 km/h 97% 0.0 mm 0 W/m2
06:22 7.9 °C 7.4 °C 1020.9 hPa Calm   8.7 km/h 97% 0.0 mm 0 W/m2
06:28 7.9 °C 7.4 °C 1020.9 hPa Calm   6.1 km/h 97% 0.0 mm 0 W/m2
06:33 7.9 °C 7.4 °C 1020.9 hPa NNW 1.1 km/h 7.2 km/h 97% 0.0 mm 0 W/m2
06:38 7.8 °C 7.3 °C 1020.9 hPa North 1.1 km/h 8.7 km/h 97% 0.0 mm 0 W/m2
06:43 7.8 °C 7.3 °C 1020.9 hPa North 3.5 km/h 8.7 km/h 97% 0.0 mm 0 W/m2
06:48 7.7 °C 7.3 °C 1020.9 hPa NNW 2.6 km/h 7.2 km/h 97% 0.0 mm 0 W/m2
06:53 7.7 °C 7.3 °C 1020.9 hPa NNW 2.6 km/h 6.1 km/h 97% 0.0 mm 0 W/m2
06:58 7.6 °C 7.2 °C 1020.9 hPa NNW 5.0 km/h 7.2 km/h 97% 0.0 mm 0 W/m2
07:03 7.6 °C 7.2 °C 1020.9 hPa Calm   7.2 km/h 97% 0.0 mm 0 W/m2
07:08 7.5 °C 7.1 °C 1020.9 hPa Calm   7.2 km/h 97% 0.0 mm 0 W/m2
07:13 7.5 °C 7.1 °C 1020.9 hPa North 1.1 km/h 6.1 km/h 97% 0.0 mm 0 W/m2
07:18 7.4 °C 6.9 °C 1020.9 hPa Calm   5.0 km/h 97% 0.0 mm 0 W/m2
07:23 7.3 °C 6.8 °C 1020.9 hPa Calm   5.0 km/h 97% 0.0 mm 0 W/m2
07:28 7.3 °C 6.8 °C 1020.9 hPa Calm   5.0 km/h 97% 0.0 mm 0 W/m2
07:33 7.2 °C 6.8 °C 1020.9 hPa Calm   5.0 km/h 97% 0.0 mm 0 W/m2
07:38 7.2 °C 6.8 °C 1020.9 hPa NNW 2.6 km/h 7.2 km/h 97% 0.0 mm 0 W/m2
07:43 7.2 °C 6.8 °C 1020.9 hPa NW 3.5 km/h 7.2 km/h 97% 0.0 mm 0 W/m2
07:48 7.2 °C 6.8 °C 1020.5 hPa NW 3.5 km/h 8.7 km/h 97% 0.0 mm 0 W/m2
07:53 7.1 °C 6.7 °C 1020.9 hPa NNW 2.6 km/h 8.7 km/h 97% 0.0 mm 0 W/m2
07:58 7.1 °C 6.7 °C 1020.9 hPa NNW 1.1 km/h 6.1 km/h 97% 0.0 mm 0 W/m2
08:03 7.0 °C 6.6 °C 1020.5 hPa NNW 3.5 km/h 6.1 km/h 97% 0.0 mm 0 W/m2
08:08 6.8 °C 6.5 °C 1020.5 hPa NW 5.0 km/h 7.2 km/h 98% 0.0 mm 0 W/m2
08:13 6.8 °C 6.5 °C 1020.9 hPa NW 6.1 km/h 8.7 km/h 98% 0.0 mm 0 W/m2
08:18 6.8 °C 6.5 °C 1020.5 hPa NW 5.0 km/h 9.7 km/h 98% 0.0 mm 0 W/m2
08:23 6.7 °C 6.4 °C 1020.5 hPa NW 6.1 km/h 11.1 km/h 98% 0.0 mm 0 W/m2
08:28 6.7 °C 6.4 °C 1020.5 hPa NW 6.1 km/h 11.1 km/h 98% 0.0 mm 0 W/m2
08:33 6.8 °C 6.5 °C 1020.5 hPa NNW 7.2 km/h 11.1 km/h 98% 0.0 mm 0 W/m2
08:38 6.8 °C 6.5 °C 1020.2 hPa NNW 6.1 km/h 11.1 km/h 98% 0.0 mm 0 W/m2
08:43 6.7 °C 6.4 °C 1020.5 hPa NW 5.0 km/h 11.1 km/h 98% 0.0 mm 0 W/m2
08:48 6.7 °C 6.4 °C 1020.2 hPa NNW 5.0 km/h 8.7 km/h 98% 0.0 mm 0 W/m2
08:53 6.6 °C 6.3 °C 1020.2 hPa NNW 5.0 km/h 8.7 km/h 98% 0.0 mm 0 W/m2
08:58 6.5 °C 6.2 °C 1020.2 hPa NW 1.1 km/h 8.7 km/h 98% 0.0 mm 0 W/m2
09:03 6.5 °C 6.2 °C 1020.2 hPa NW 1.1 km/h 9.7 km/h 98% 0.0 mm 0 W/m2
09:08 6.4 °C 6.1 °C 1020.2 hPa Calm   9.7 km/h 98% 0.0 mm 0 W/m2
09:13 6.4 °C 6.1 °C 1019.9 hPa Calm   3.5 km/h 98% 0.0 mm 0 W/m2
09:18 6.3 °C 6.0 °C 1020.2 hPa NW 3.5 km/h 7.2 km/h 98% 0.0 mm 0 W/m2
09:23 6.2 °C 5.9 °C 1020.2 hPa NW 3.5 km/h 7.2 km/h 98% 0.0 mm 0 W/m2
09:28 6.2 °C 5.9 °C 1019.9 hPa NW 5.0 km/h 7.2 km/h 98% 0.0 mm 0 W/m2
09:33 6.3 °C 6.0 °C 1019.9 hPa NNW 3.5 km/h 9.7 km/h 98% 0.0 mm 0 W/m2
09:38 6.2 °C 5.9 °C 1019.9 hPa NNW 7.2 km/h 9.7 km/h 98% 0.0 mm 0 W/m2
09:43 6.2 °C 5.9 °C 1019.9 hPa NNW 5.0 km/h 9.7 km/h 98% 0.0 mm 0 W/m2
09:48 6.2 °C 5.9 °C 1019.9 hPa NNW 6.1 km/h 9.7 km/h 98% 0.0 mm 0 W/m2
09:53 6.1 °C 5.8 °C 1019.9 hPa NNW 6.1 km/h 11.1 km/h 98% 0.0 mm 0 W/m2
10:03 5.9 °C 5.8 °C 1019.9 hPa NNW 3.5 km/h 11.1 km/h 99% 0.0 mm 0 W/m2
10:08 5.9 °C 5.8 °C 1019.9 hPa North 7.2 km/h 9.7 km/h 99% 0.0 mm 0 W/m2
10:13 5.9 °C 5.8 °C 1019.9 hPa NNW 6.1 km/h 11.1 km/h 99% 0.0 mm 0 W/m2
10:18 5.8 °C 5.7 °C 1019.9 hPa NW 7.2 km/h 11.1 km/h 99% 0.0 mm 0 W/m2
10:23 5.8 °C 5.7 °C 1019.9 hPa NW 6.1 km/h 11.1 km/h 99% 0.0 mm 0 W/m2
10:28 5.7 °C 5.6 °C 1019.9 hPa NW 5.0 km/h 11.1 km/h 99% 0.0 mm 0 W/m2
10:33 5.7 °C 5.6 °C 1019.9 hPa NNW 3.5 km/h 8.7 km/h 99% 0.0 mm 0 W/m2
10:38 5.7 °C 5.6 °C 1019.9 hPa NNW 2.6 km/h 8.7 km/h 99% 0.0 mm 0 W/m2
10:43 5.7 °C 5.6 °C 1019.5 hPa NNW 1.1 km/h 8.7 km/h 99% 0.0 mm 0 W/m2
10:48 5.7 °C 5.6 °C 1019.5 hPa North 2.6 km/h 7.2 km/h 99% 0.0 mm 0 W/m2
10:53 5.6 °C 5.4 °C 1019.5 hPa North 1.1 km/h 6.1 km/h 99% 0.0 mm 0 W/m2
10:58 5.5 °C 5.3 °C 1019.5 hPa NW 5.0 km/h 7.2 km/h 99% 0.0 mm 0 W/m2
11:03 5.5 °C 5.3 °C 1019.2 hPa NNW 6.1 km/h 8.7 km/h 99% 0.0 mm 0 W/m2
11:08 5.6 °C 5.4 °C 1019.2 hPa NW 2.6 km/h 9.7 km/h 99% 0.0 mm 0 W/m2
11:13 5.5 °C 5.3 °C 1018.8 hPa NW 2.6 km/h 9.7 km/h 99% 0.0 mm 0 W/m2
11:18 5.3 °C 5.2 °C 1018.8 hPa NW 3.5 km/h 8.7 km/h 99% 0.0 mm 0 W/m2
11:23 5.4 °C 5.3 °C 1019.2 hPa NW 5.0 km/h 13.4 km/h 99% 0.0 mm 0 W/m2
11:28 5.4 °C 5.3 °C 1019.2 hPa NNW 3.5 km/h 13.4 km/h 99% 0.0 mm 0 W/m2
11:33 5.4 °C 5.3 °C 1019.2 hPa NNW 6.1 km/h 11.1 km/h 99% 0.0 mm 0 W/m2
11:38 5.5 °C 5.3 °C 1018.8 hPa NNW 5.0 km/h 9.7 km/h 99% 0.0 mm 0 W/m2
11:43 5.4 °C 5.3 °C 1018.8 hPa NW 6.1 km/h 11.1 km/h 99% 0.0 mm 0 W/m2
11:48 5.4 °C 5.3 °C 1018.8 hPa NW 7.2 km/h 13.4 km/h 99% 0.0 mm 0 W/m2
11:53 5.5 °C 5.3 °C 1018.8 hPa NW 5.0 km/h 13.4 km/h 99% 0.0 mm 0 W/m2
11:58 5.5 °C 5.3 °C 1018.8 hPa NNW 8.7 km/h 12.2 km/h 99% 0.0 mm 0 W/m2
12:03 5.5 °C 5.3 °C 1018.8 hPa NW 6.1 km/h 12.2 km/h 99% 0.0 mm 0 W/m2
12:08 5.3 °C 5.2 °C 1018.8 hPa NW 6.1 km/h 14.8 km/h 99% 0.0 mm 0 W/m2
12:13 5.2 °C 5.1 °C 1018.8 hPa NW 7.2 km/h 14.8 km/h 99% 0.0 mm 0 W/m2
12:18 5.1 °C 4.9 °C 1018.5 hPa NNW 7.2 km/h 14.8 km/h 99% 0.0 mm 0 W/m2
12:23 5.1 °C 4.9 °C 1018.5 hPa NW 7.2 km/h 15.8 km/h 99% 0.0 mm 0 W/m2
12:28 5.0 °C 4.8 °C 1018.5 hPa NW 6.1 km/h 15.8 km/h 99% 0.0 mm 0 W/m2
12:33 5.0 °C 4.8 °C 1018.5 hPa NW 6.1 km/h 13.4 km/h 99% 0.0 mm 0 W/m2
12:38 4.9 °C 4.8 °C 1018.5 hPa NNW 6.1 km/h 13.4 km/h 99% 0.0 mm 0 W/m2
12:43 4.9 °C 4.8 °C 1018.2 hPa NNW 5.0 km/h 13.4 km/h 99% 0.0 mm 0 W/m2
12:48 4.9 °C 4.8 °C 1018.5 hPa NNW 1.1 km/h 13.4 km/h 99% 0.0 mm 0 W/m2
12:53 5.0 °C 4.8 °C 1018.5 hPa NW 7.2 km/h 12.2 km/h 99% 0.0 mm 0 W/m2
12:58 5.0 °C 4.8 °C 1018.5 hPa NW 5.0 km/h 12.2 km/h 99% 0.0 mm 0 W/m2
13:03 5.0 °C 4.8 °C 1018.2 hPa NW 6.1 km/h 13.4 km/h 99% 0.0 mm 0 W/m2
13:08 5.0 °C 4.8 °C 1018.2 hPa NW 8.7 km/h 13.4 km/h 99% 0.0 mm 0 W/m2
13:13 5.1 °C 4.9 °C 1018.2 hPa NNW 7.2 km/h 13.4 km/h 99% 0.0 mm 0 W/m2
13:18 5.0 °C 4.8 °C 1018.2 hPa NW 7.2 km/h 13.4 km/h 99% 0.0 mm 0 W/m2
13:23 5.0 °C 4.8 °C 1018.2 hPa NW 8.7 km/h 13.4 km/h 99% 0.0 mm 0 W/m2
13:28 5.0 °C 4.8 °C 1018.2 hPa NNW 8.7 km/h 13.4 km/h 99% 0.0 mm 0 W/m2
13:33 5.0 °C 4.8 °C 1018.2 hPa NNW 7.2 km/h 12.2 km/h 99% 0.0 mm 0 W/m2
13:38 5.0 °C 4.8 °C 1018.2 hPa NNW 6.1 km/h 14.8 km/h 99% 0.0 mm 0 W/m2
13:43 4.9 °C 4.8 °C 1018.2 hPa NNW 6.1 km/h 14.8 km/h 99% 0.0 mm 0 W/m2
13:48 4.8 °C 4.7 °C 1017.8 hPa NNW 5.0 km/h 11.1 km/h 99% 0.0 mm 0 W/m2
13:53 4.8 °C 4.7 °C 1017.8 hPa NW 7.2 km/h 12.2 km/h 99% 0.0 mm 0 W/m2
13:58 4.7 °C 4.6 °C 1017.8 hPa NW 7.2 km/h 12.2 km/h 99% 0.0 mm 0 W/m2
14:03 4.7 °C 4.6 °C 1018.2 hPa WNW 7.2 km/h 12.2 km/h 99% 0.0 mm 0 W/m2
14:08 4.8 °C 4.7 °C 1017.8 hPa NW 8.7 km/h 14.8 km/h 99% 0.0 mm 0 W/m2
14:13 4.9 °C 4.8 °C 1017.8 hPa NNW 9.7 km/h 14.8 km/h 99% 0.0 mm 0 W/m2
14:18 4.9 °C 4.8 °C 1017.8 hPa NNW 6.1 km/h 14.8 km/h 99% 0.0 mm 0 W/m2
14:23 4.9 °C 4.8 °C 1017.8 hPa NNW 7.2 km/h 14.8 km/h 99% 0.0 mm 0 W/m2
14:28 4.8 °C 4.7 °C 1017.5 hPa NNW 8.7 km/h 14.8 km/h 99% 0.0 mm 0 W/m2
14:33 4.9 °C 4.8 °C 1017.8 hPa NNW 8.7 km/h 12.2 km/h 99% 0.0 mm 0 W/m2
14:38 4.9 °C 4.8 °C 1017.8 hPa NNW 7.2 km/h 13.4 km/h 99% 0.0 mm 0 W/m2
14:43 4.9 °C 4.8 °C 1017.8 hPa NW 7.2 km/h 14.8 km/h 99% 0.0 mm 0 W/m2
14:48 4.9 °C 4.8 °C 1017.8 hPa NW 7.2 km/h 14.8 km/h 99% 0.0 mm 1 W/m2
14:53 5.0 °C 4.8 °C 1017.8 hPa NW 5.0 km/h 14.8 km/h 99% 0.0 mm 2 W/m2
14:58 4.9 °C 4.8 °C 1017.8 hPa NW 6.1 km/h 14.8 km/h 99% 0.0 mm 4 W/m2
15:03 4.9 °C 4.8 °C 1017.8 hPa NW 8.7 km/h 13.4 km/h 99% 0.0 mm 7 W/m2
15:08 4.9 °C 4.8 °C 1017.8 hPa NW 6.1 km/h 13.4 km/h 99% 0.0 mm 10 W/m2
15:13 4.9 °C 4.8 °C 1017.8 hPa NW 8.7 km/h 13.4 km/h 99% 0.0 mm 13 W/m2
15:18 5.0 °C 4.8 °C 1017.8 hPa NNW 5.0 km/h 13.4 km/h 99% 0.0 mm 58 W/m2
15:23 5.4 °C 5.3 °C 1017.5 hPa NNW 3.5 km/h 13.4 km/h 99% 0.0 mm 60 W/m2
15:28 5.6 °C 5.4 °C 1017.8 hPa NW 3.5 km/h 12.2 km/h 99% 0.0 mm 89 W/m2
15:33 5.9 °C 5.8 °C 1017.8 hPa NNW 7.2 km/h 12.2 km/h 99% 0.0 mm 101 W/m2
15:38 6.1 °C 5.8 °C 1017.8 hPa NNW 8.7 km/h 14.8 km/h 98% 0.0 mm 114 W/m2
15:43 6.4 °C 5.9 °C 1017.8 hPa NNW 7.2 km/h 14.8 km/h 97% 0.0 mm 128 W/m2
15:48 6.5 °C 5.9 °C 1017.8 hPa NW 11.1 km/h 13.4 km/h 96% 0.0 mm 141 W/m2
15:53 6.7 °C 5.9 °C 1017.8 hPa NW 6.1 km/h 13.4 km/h 95% 0.0 mm 153 W/m2
15:58 7.0 °C 5.9 °C 1017.8 hPa NW 8.7 km/h 13.4 km/h 93% 0.0 mm 158 W/m2
16:03 7.2 °C 6.0 °C 1017.8 hPa NW 11.1 km/h 15.8 km/h 92% 0.0 mm 177 W/m2
16:08 7.5 °C 6.1 °C 1017.8 hPa NW 11.1 km/h 15.8 km/h 91% 0.0 mm 188 W/m2
16:13 7.8 °C 6.4 °C 1017.8 hPa NNW 7.2 km/h 15.8 km/h 91% 0.0 mm 199 W/m2
16:18 8.2 °C 6.5 °C 1017.8 hPa NNW 7.2 km/h 14.8 km/h 89% 0.0 mm 211 W/m2
16:23 8.5 °C 6.6 °C 1017.8 hPa NNW 7.2 km/h 15.8 km/h 88% 0.0 mm 223 W/m2
16:41 9.1 °C 6.7 °C 1017.8 hPa NNW 6.1 km/h 13.4 km/h 85% 0.0 mm 275 W/m2
16:46 9.4 °C 7.0 °C 1017.8 hPa NNW 5.0 km/h 13.4 km/h 85% 0.0 mm 289 W/m2
16:51 9.7 °C 7.3 °C 1017.8 hPa NNW 2.6 km/h 11.1 km/h 85% 0.0 mm 301 W/m2
16:56 10.2 °C 7.6 °C 1017.8 hPa NW 3.5 km/h 8.7 km/h 84% 0.0 mm 310 W/m2
17:01 10.8 °C 8.2 °C 1017.8 hPa NW 1.1 km/h 7.2 km/h 84% 0.0 mm 320 W/m2
17:06 11.3 °C 8.2 °C 1017.5 hPa NNW 5.0 km/h 9.7 km/h 81% 0.0 mm 328 W/m2
17:11 11.4 °C 7.9 °C 1017.2 hPa NNW 1.1 km/h 11.1 km/h 79% 0.0 mm 334 W/m2
17:16 11.7 °C 8.2 °C 1017.2 hPa NNW 1.1 km/h 11.1 km/h 79% 0.0 mm 338 W/m2
17:21 12.4 °C 8.5 °C 1017.2 hPa North 2.6 km/h 9.7 km/h 77% 0.0 mm 337 W/m2
17:26 12.7 °C 8.4 °C 1017.2 hPa NNW 1.1 km/h 7.2 km/h 75% 0.0 mm 340 W/m2
17:31 12.8 °C 8.5 °C 1017.2 hPa NW 3.5 km/h 8.7 km/h 75% 0.0 mm 300 W/m2
17:36 13.0 °C 8.9 °C 1016.8 hPa NW 1.1 km/h 11.1 km/h 76% 0.0 mm 172 W/m2
17:41 13.2 °C 9.1 °C 1016.8 hPa NW 3.5 km/h 11.1 km/h 76% 0.0 mm 68 W/m2
17:46 13.4 °C 9.3 °C 1017.2 hPa NW 5.0 km/h 11.1 km/h 76% 0.0 mm 56 W/m2
17:51 13.7 °C 9.6 °C 1016.8 hPa NW 6.1 km/h 12.2 km/h 76% 0.0 mm 53 W/m2
17:56 14.2 °C 9.6 °C 1016.8 hPa NNW 7.2 km/h 15.8 km/h 74% 0.0 mm 51 W/m2
18:01 14.7 °C 9.9 °C 1016.8 hPa NNW 9.7 km/h 15.8 km/h 73% 0.0 mm 50 W/m2
18:06 15.1 °C 9.7 °C 1016.8 hPa NNW 7.2 km/h 15.8 km/h 70% 0.0 mm 50 W/m2
18:11 15.3 °C 9.7 °C 1016.8 hPa North 5.0 km/h 15.8 km/h 69% 0.0 mm 52 W/m2
18:16 15.5 °C 9.8 °C 1016.8 hPa North 8.7 km/h 15.8 km/h 69% 0.0 mm 56 W/m2
18:21 15.6 °C 9.7 °C 1016.8 hPa North 11.1 km/h 14.8 km/h 68% 0.0 mm 125 W/m2
18:26 16.0 °C 9.9 °C 1016.8 hPa North 5.0 km/h 14.8 km/h 67% 0.0 mm 325 W/m2
18:31 16.6 °C 10.2 °C 1016.8 hPa NNW 7.2 km/h 13.4 km/h 66% 0.0 mm 355 W/m2
18:36 17.2 °C 10.1 °C 1016.8 hPa North 7.2 km/h 11.1 km/h 63% 0.0 mm 200 W/m2
18:41 17.5 °C 10.4 °C 1016.8 hPa North 11.1 km/h 14.8 km/h 63% 0.0 mm 386 W/m2
18:46 17.6 °C 10.0 °C 1016.5 hPa North 6.1 km/h 14.8 km/h 61% 0.0 mm 391 W/m2
18:51 18.0 °C 10.1 °C 1016.5 hPa NNE 6.1 km/h 14.8 km/h 60% 0.0 mm 400 W/m2
18:56 17.8 °C 9.2 °C 1016.1 hPa NNE 9.7 km/h 17.2 km/h 57% 0.0 mm 402 W/m2
19:01 17.7 °C 9.1 °C 1016.5 hPa North 5.0 km/h 17.2 km/h 57% 0.0 mm 401 W/m2
19:06 17.8 °C 9.9 °C 1016.1 hPa North 9.7 km/h 15.8 km/h 60% 0.0 mm 408 W/m2
19:11 17.8 °C 9.7 °C 1016.5 hPa North 7.2 km/h 15.8 km/h 59% 0.0 mm 409 W/m2
19:16 17.8 °C 9.4 °C 1016.1 hPa North 9.7 km/h 18.3 km/h 58% 0.0 mm 409 W/m2
19:21 18.0 °C 9.4 °C 1016.1 hPa North 11.1 km/h 18.3 km/h 57% 0.0 mm 411 W/m2
19:26 18.4 °C 9.7 °C 1016.1 hPa NNW 9.7 km/h 17.2 km/h 57% 0.0 mm 414 W/m2
19:31 18.5 °C 9.3 °C 1015.8 hPa Calm   15.8 km/h 55% 0.0 mm 414 W/m2
19:36 18.4 °C 9.2 °C 1015.8 hPa NNW 2.6 km/h 14.8 km/h 55% 0.0 mm 413 W/m2
19:41 18.4 °C 9.5 °C 1015.8 hPa NW 12.2 km/h 20.9 km/h 56% 0.0 mm 411 W/m2
19:46 18.9 °C 10.2 °C 1016.1 hPa Calm   20.9 km/h 57% 0.0 mm 414 W/m2
19:51 19.1 °C 9.3 °C 1016.1 hPa NNW 8.7 km/h 21.9 km/h 53% 0.0 mm 414 W/m2
19:56 18.9 °C 9.1 °C 1015.8 hPa NW 12.2 km/h 21.9 km/h 53% 0.0 mm 407 W/m2
20:01 19.1 °C 9.0 °C 1015.8 hPa NW 14.8 km/h 20.9 km/h 52% 0.0 mm 394 W/m2
20:06 19.1 °C 9.0 °C 1015.5 hPa NW 11.1 km/h 20.9 km/h 52% 0.0 mm 400 W/m2
20:11 19.3 °C 8.9 °C 1015.5 hPa NNW 6.1 km/h 20.9 km/h 51% 0.0 mm 392 W/m2
20:16 19.1 °C 8.4 °C 1015.5 hPa NNW 12.2 km/h 21.9 km/h 50% 0.0 mm 404 W/m2
20:21 19.0 °C 8.7 °C 1015.5 hPa NNW 9.7 km/h 21.9 km/h 51% 0.0 mm 401 W/m2
20:26 19.6 °C 9.5 °C 1015.1 hPa NNW 11.1 km/h 21.9 km/h 52% 0.0 mm 395 W/m2
20:31 19.7 °C 9.6 °C 1015.1 hPa NNW 7.2 km/h 19.5 km/h 52% 0.0 mm 390 W/m2
20:36 19.7 °C 9.3 °C 1015.1 hPa NNW 7.2 km/h 21.9 km/h 51% 0.0 mm 388 W/m2
20:41 19.4 °C 8.7 °C 1014.8 hPa NNW 11.1 km/h 27.0 km/h 50% 0.0 mm 382 W/m2
20:46 19.5 °C 9.4 °C 1014.8 hPa NNW 5.0 km/h 27.0 km/h 52% 0.0 mm 369 W/m2
20:51 19.6 °C 9.5 °C 1014.8 hPa NNW 8.7 km/h 20.9 km/h 52% 0.0 mm 367 W/m2
20:56 19.4 °C 9.3 °C 1014.8 hPa NW 8.7 km/h 21.9 km/h 52% 0.0 mm 361 W/m2
21:01 19.3 °C 9.2 °C 1014.8 hPa NW 7.2 km/h 24.5 km/h 52% 0.0 mm 361 W/m2
21:06 19.2 °C 8.8 °C 1015.1 hPa NW 14.8 km/h 29.4 km/h 51% 0.0 mm 345 W/m2
21:11 19.1 °C 8.7 °C 1014.8 hPa NW 12.2 km/h 29.4 km/h 51% 0.0 mm 341 W/m2
21:16 19.2 °C 9.1 °C 1014.8 hPa NW 9.7 km/h 29.4 km/h 52% 0.0 mm 333 W/m2
21:21 19.2 °C 8.8 °C 1014.4 hPa NW 11.1 km/h 28.0 km/h 51% 0.0 mm 334 W/m2
21:26 19.5 °C 9.4 °C 1014.4 hPa NNW 11.1 km/h 28.0 km/h 52% 0.0 mm 326 W/m2
21:31 19.3 °C 9.2 °C 1014.4 hPa NNW 7.2 km/h 21.9 km/h 52% 0.0 mm 303 W/m2
21:36 19.2 °C 9.4 °C 1014.1 hPa NNW 15.8 km/h 27.0 km/h 53% 0.0 mm 259 W/m2
21:41 19.2 °C 9.7 °C 1014.1 hPa NNW 11.1 km/h 27.0 km/h 54% 0.0 mm 198 W/m2
21:46 19.6 °C 10.1 °C 1014.1 hPa NNW 11.1 km/h 27.0 km/h 54% 0.0 mm 155 W/m2
21:51 20.0 °C 10.2 °C 1014.1 hPa NNW 11.1 km/h 23.3 km/h 53% 0.0 mm 113 W/m2
21:56 19.7 °C 9.6 °C 1014.1 hPa NNW 12.2 km/h 24.5 km/h 52% 0.0 mm 68 W/m2
22:01 19.6 °C 9.8 °C 1014.1 hPa NNW 18.3 km/h 24.5 km/h 53% 0.0 mm 61 W/m2
22:06 19.7 °C 10.2 °C 1013.8 hPa NNW 13.4 km/h 24.5 km/h 54% 0.0 mm 62 W/m2
22:11 19.7 °C 9.9 °C 1013.8 hPa NNW 12.2 km/h 24.5 km/h 53% 0.0 mm 61 W/m2
22:16 19.7 °C 9.9 °C 1013.4 hPa NNW 9.7 km/h 24.5 km/h 53% 0.0 mm 61 W/m2
22:21 19.5 °C 9.4 °C 1013.4 hPa NNW 13.4 km/h 25.6 km/h 52% 0.0 mm 62 W/m2
22:26 19.7 °C 10.2 °C 1013.4 hPa NNW 20.9 km/h 27.0 km/h 54% 0.0 mm 64 W/m2
22:31 19.7 °C 9.9 °C 1013.4 hPa NW 14.8 km/h 27.0 km/h 53% 0.0 mm 64 W/m2
22:36 19.9 °C 10.1 °C 1013.4 hPa NNW 14.8 km/h 27.0 km/h 53% 0.0 mm 65 W/m2
22:41 19.7 °C 9.6 °C 1013.1 hPa NNW 17.2 km/h 33.1 km/h 52% 0.0 mm 63 W/m2
22:46 19.2 °C 9.7 °C 1013.1 hPa NNW 14.8 km/h 33.1 km/h 54% 0.0 mm 64 W/m2
22:51 18.9 °C 9.4 °C 1013.1 hPa NNW 24.5 km/h 39.3 km/h 54% 0.0 mm 64 W/m2
22:56 18.7 °C 9.5 °C 1013.4 hPa NNW 18.3 km/h 39.3 km/h 55% 0.0 mm 63 W/m2
23:01 18.8 °C 9.6 °C 1013.4 hPa NNW 17.2 km/h 39.3 km/h 55% 0.0 mm 67 W/m2
23:06 19.0 °C 9.5 °C 1013.4 hPa NW 9.7 km/h 33.1 km/h 54% 0.0 mm 93 W/m2
23:11 19.2 °C 9.1 °C 1013.4 hPa North 25.6 km/h 33.1 km/h 52% 0.0 mm 161 W/m2
23:16 19.0 °C 8.7 °C 1013.4 hPa North 14.8 km/h 33.1 km/h 51% 0.0 mm 184 W/m2
23:21 18.9 °C 8.8 °C 1013.4 hPa NNW 7.2 km/h 33.1 km/h 52% 0.0 mm 176 W/m2
23:26 19.0 °C 8.3 °C 1013.4 hPa NNW 13.4 km/h 24.5 km/h 50% 0.0 mm 167 W/m2
23:31 19.0 °C 8.3 °C 1013.1 hPa NNW 13.4 km/h 25.6 km/h 50% 0.0 mm 157 W/m2
23:36 19.1 °C 8.7 °C 1013.1 hPa NNW 20.9 km/h 27.0 km/h 51% 0.0 mm 148 W/m2
23:41 19.0 °C 8.3 °C 1013.1 hPa NNW 9.7 km/h 27.0 km/h 50% 0.0 mm 137 W/m2
23:46 18.8 °C 8.2 °C 1013.4 hPa NNW 15.8 km/h 27.0 km/h 50% 0.0 mm 125 W/m2
23:51 18.3 °C 8.3 °C 1013.1 hPa NNW 14.8 km/h 21.9 km/h 52% 0.0 mm 105 W/m2
23:56 17.9 °C 8.2 °C 1013.1 hPa NW 7.2 km/h 21.9 km/h 53% 0.0 mm 52 W/m2
Northern Hawkes Bay. New Zealand Historic Data
Compliments of Weather Underground - 2 mb